Loon Lake, Canada
Current Conditions -  °F | °C
As of 6:00 PM on Thursday 27 Nov 2014 (Local Time) from CYLJ Reporting Station
Overcast Overcast  
Wind Chill: -22°   Ceiling: 1500
Heat Index: -2°   Visibility: 15mi
Dew Point: -8°   Wind: 15mph
Humidity: 78%   Direction: 50°NE
Pressure: 30.16"   Gusts: NA
Location:  54.03°N, 109.16°W
Report Text: CYLJ 280000Z 05013KT 15SM OVC015 M19/M22 A3016 RMK SC8 SN COV/MEDIUM PACK/LAST OB/NXT 281200 UTC SLP260
Loading
Personal Weather Stations






























Interactive Weather Map New forecast layout! Learn more

10-Day Weather Forecast

Advertisements
Track Severe Weather on mobile